sensor_id;sensor_type;location;lat;lon;timestamp;pressure;altitude;pressure_sealevel;temperature;humidity
65227;BME280;51805;49.012;12.104;2023-02-28T00:02:05;98546.38;;;22.13;41.37
65227;BME280;51805;49.012;12.104;2023-02-28T00:04:30;98548.03;;;22.14;41.39
65227;BME280;51805;49.012;12.104;2023-02-28T00:06:55;98545.28;;;22.09;41.39
65227;BME280;51805;49.012;12.104;2023-02-28T00:09:20;98545.59;;;22.13;41.55
65227;BME280;51805;49.012;12.104;2023-02-28T00:11:46;98546.09;;;22.10;41.42
65227;BME280;51805;49.012;12.104;2023-02-28T00:14:11;98542.34;;;22.16;41.38
65227;BME280;51805;49.012;12.104;2023-02-28T00:16:36;98533.09;;;22.12;41.38
65227;BME280;51805;49.012;12.104;2023-02-28T00:19:01;98539.31;;;22.07;41.53
65227;BME280;51805;49.012;12.104;2023-02-28T00:21:26;98535.28;;;22.10;41.51
65227;BME280;51805;49.012;12.104;2023-02-28T00:23:51;98529.88;;;22.10;41.41
65227;BME280;51805;49.012;12.104;2023-02-28T00:26:16;98535.50;;;22.03;41.59
65227;BME280;51805;49.012;12.104;2023-02-28T00:28:41;98533.88;;;22.02;41.73
65227;BME280;51805;49.012;12.104;2023-02-28T00:31:07;98523.59;;;22.04;41.60
65227;BME280;51805;49.012;12.104;2023-02-28T00:33:32;98513.56;;;22.00;41.70
65227;BME280;51805;49.012;12.104;2023-02-28T00:36:01;98531.13;;;21.97;41.66
65227;BME280;51805;49.012;12.104;2023-02-28T00:38:26;98521.38;;;21.96;41.67
65227;BME280;51805;49.012;12.104;2023-02-28T00:40:51;98522.22;;;22.02;41.51
65227;BME280;51805;49.012;12.104;2023-02-28T00:43:16;98527.34;;;21.98;41.69
65227;BME280;51805;49.012;12.104;2023-02-28T00:45:41;98517.31;;;21.94;41.87
65227;BME280;51805;49.012;12.104;2023-02-28T00:48:07;98514.31;;;21.90;41.85
65227;BME280;51805;49.012;12.104;2023-02-28T00:50:32;98512.16;;;21.92;41.72
65227;BME280;51805;49.012;12.104;2023-02-28T00:52:57;98518.09;;;21.89;41.81
65227;BME280;51805;49.012;12.104;2023-02-28T00:55:22;98512.69;;;21.89;41.97
65227;BME280;51805;49.012;12.104;2023-02-28T00:57:47;98514.31;;;21.90;41.93
65227;BME280;51805;49.012;12.104;2023-02-28T01:00:12;98512.13;;;21.87;42.00
65227;BME280;51805;49.012;12.104;2023-02-28T01:02:37;98509.16;;;21.84;41.88
65227;BME280;51805;49.012;12.104;2023-02-28T01:05:03;98505.09;;;21.86;42.08
65227;BME280;51805;49.012;12.104;2023-02-28T01:07:28;98510.50;;;21.86;41.84
65227;BME280;51805;49.012;12.104;2023-02-28T01:09:54;98506.19;;;21.85;41.89
65227;BME280;51805;49.012;12.104;2023-02-28T01:12:19;98510.47;;;21.81;42.15
65227;BME280;51805;49.012;12.104;2023-02-28T01:14:44;98512.63;;;21.79;42.21
65227;BME280;51805;49.012;12.104;2023-02-28T01:17:09;98502.34;;;21.81;42.16
65227;BME280;51805;49.012;12.104;2023-02-28T01:19:34;98501.81;;;21.79;42.11
65227;BME280;51805;49.012;12.104;2023-02-28T01:22:00;98498.53;;;21.77;42.04
65227;BME280;51805;49.012;12.104;2023-02-28T01:24:25;98500.69;;;21.75;42.01
65227;BME280;51805;49.012;12.104;2023-02-28T01:26:51;98504.44;;;21.74;42.15
65227;BME280;51805;49.012;12.104;2023-02-28T01:29:16;98502.78;;;21.73;42.26
65227;BME280;51805;49.012;12.104;2023-02-28T01:31:41;98495.78;;;21.72;42.04
65227;BME280;51805;49.012;12.104;2023-02-28T01:34:06;98481.09;;;21.63;42.12
65227;BME280;51805;49.012;12.104;2023-02-28T01:36:31;98494.41;;;21.70;42.31
65227;BME280;51805;49.012;12.104;2023-02-28T01:38:56;98500.63;;;21.70;42.08
65227;BME280;51805;49.012;12.104;2023-02-28T01:46:12;98499.25;;;21.68;42.33
65227;BME280;51805;49.012;12.104;2023-02-28T01:48:42;98486.56;;;21.68;42.11
65227;BME280;51805;49.012;12.104;2023-02-28T01:51:11;98498.16;;;21.64;42.41
65227;BME280;51805;49.012;12.104;2023-02-28T01:53:39;98494.06;;;21.61;42.20
65227;BME280;51805;49.012;12.104;2023-02-28T01:56:07;98491.94;;;21.63;42.27
65227;BME280;51805;49.012;12.104;2023-02-28T01:58:34;98482.72;;;21.64;42.31
65227;BME280;51805;49.012;12.104;2023-02-28T02:01:00;98484.91;;;21.62;42.38
65227;BME280;51805;49.012;12.104;2023-02-28T02:03:25;98487.88;;;21.61;42.32
65227;BME280;51805;49.012;12.104;2023-02-28T02:05:50;98478.34;;;21.58;42.48
65227;BME280;51805;49.012;12.104;2023-02-28T02:08:17;98479.19;;;21.59;42.33
65227;BME280;51805;49.012;12.104;2023-02-28T02:11:01;98478.88;;;21.55;42.41
65227;BME280;51805;49.012;12.104;2023-02-28T02:16:10;98476.44;;;21.54;42.53
65227;BME280;51805;49.012;12.104;2023-02-28T02:26:50;98481.53;;;21.50;42.45
65227;BME280;51805;49.012;12.104;2023-02-28T02:34:54;98475.88;;;21.47;42.78
65227;BME280;51805;49.012;12.104;2023-02-28T02:42:23;98478.25;;;21.43;42.51
65227;BME280;51805;49.012;12.104;2023-02-28T02:44:55;98483.41;;;21.44;42.56
65227;BME280;51805;49.012;12.104;2023-02-28T02:47:21;98480.13;;;21.42;42.60
65227;BME280;51805;49.012;12.104;2023-02-28T02:49:50;98479.34;;;21.42;42.60
65227;BME280;51805;49.012;12.104;2023-02-28T02:52:17;98488.00;;;21.44;42.66
65227;BME280;51805;49.012;12.104;2023-02-28T02:54:44;98483.66;;;21.43;42.55
65227;BME280;51805;49.012;12.104;2023-02-28T02:57:11;98489.06;;;21.43;42.63
65227;BME280;51805;49.012;12.104;2023-02-28T02:59:39;98490.97;;;21.42;42.44
65227;BME280;51805;49.012;12.104;2023-02-28T03:02:06;98486.91;;;21.40;42.71
65227;BME280;51805;49.012;12.104;2023-02-28T03:04:33;98479.03;;;21.38;42.53
65227;BME280;51805;49.012;12.104;2023-02-28T03:06:59;98487.16;;;21.38;42.66
65227;BME280;51805;49.012;12.104;2023-02-28T03:09:25;98484.16;;;21.35;42.67
65227;BME280;51805;49.012;12.104;2023-02-28T03:11:51;98482.53;;;21.34;42.67
65227;BME280;51805;49.012;12.104;2023-02-28T03:16:57;98486.28;;;21.33;42.61
65227;BME280;51805;49.012;12.104;2023-02-28T03:21:56;98475.72;;;21.31;42.75
65227;BME280;51805;49.012;12.104;2023-02-28T03:27:15;98480.59;;;21.29;42.65
65227;BME280;51805;49.012;12.104;2023-02-28T03:29:43;98481.66;;;21.28;42.78
65227;BME280;51805;49.012;12.104;2023-02-28T03:32:13;98482.75;;;21.27;42.74
65227;BME280;51805;49.012;12.104;2023-02-28T03:34:45;98487.06;;;21.28;42.86
65227;BME280;51805;49.012;12.104;2023-02-28T03:37:12;98478.16;;;21.28;42.66
65227;BME280;51805;49.012;12.104;2023-02-28T03:39:40;98488.41;;;21.26;42.79
65227;BME280;51805;49.012;12.104;2023-02-28T03:42:11;98492.19;;;21.25;42.70
65227;BME280;51805;49.012;12.104;2023-02-28T03:44:39;98489.75;;;21.23;42.88
65227;BME280;51805;49.012;12.104;2023-02-28T03:47:13;98486.22;;;21.23;42.80
65227;BME280;51805;49.012;12.104;2023-02-28T03:49:46;98487.31;;;21.22;42.87
65227;BME280;51805;49.012;12.104;2023-02-28T03:52:14;98480.81;;;21.23;42.69
65227;BME280;51805;49.012;12.104;2023-02-28T03:54:44;98484.59;;;21.22;42.88
65227;BME280;51805;49.012;12.104;2023-02-28T03:59:49;98482.16;;;21.20;42.84
65227;BME280;51805;49.012;12.104;2023-02-28T04:02:17;98488.88;;;21.18;42.89
65227;BME280;51805;49.012;12.104;2023-02-28T04:04:42;98490.53;;;21.19;42.87
65227;BME280;51805;49.012;12.104;2023-02-28T04:07:07;98488.88;;;21.18;43.03
65227;BME280;51805;49.012;12.104;2023-02-28T04:09:33;98494.28;;;21.18;42.96
65227;BME280;51805;49.012;12.104;2023-02-28T04:11:58;98490.22;;;21.15;43.03
65227;BME280;51805;49.012;12.104;2023-02-28T04:14:24;98492.09;;;21.15;43.29
65227;BME280;51805;49.012;12.104;2023-02-28T04:16:49;98497.75;;;21.13;43.18
65227;BME280;51805;49.012;12.104;2023-02-28T04:19:14;98495.88;;;21.14;43.27
65227;BME280;51805;49.012;12.104;2023-02-28T04:21:47;98498.56;;;21.14;43.41
65227;BME280;51805;49.012;12.104;2023-02-28T04:24:13;98498.56;;;21.14;43.24
65227;BME280;51805;49.012;12.104;2023-02-28T04:26:40;98495.31;;;21.12;43.38
65227;BME280;51805;49.012;12.104;2023-02-28T04:29:05;98495.31;;;21.12;43.44
65227;BME280;51805;49.012;12.104;2023-02-28T04:31:30;98497.44;;;21.10;43.59
65227;BME280;51805;49.012;12.104;2023-02-28T04:33:56;98494.47;;;21.11;43.70
65227;BME280;51805;49.012;12.104;2023-02-28T04:36:21;98462.81;;;21.02;43.38
65227;BME280;51805;49.012;12.104;2023-02-28T04:38:46;98490.72;;;21.12;43.53
65227;BME280;51805;49.012;12.104;2023-02-28T04:41:12;98484.75;;;21.10;43.63
65227;BME280;51805;49.012;12.104;2023-02-28T04:43:37;98490.41;;;21.09;43.71
65227;BME280;51805;49.012;12.104;2023-02-28T04:46:04;98493.13;;;21.09;43.60
65227;BME280;51805;49.012;12.104;2023-02-28T04:48:29;98495.25;;;21.07;43.84
65227;BME280;51805;49.012;12.104;2023-02-28T04:50:55;98492.00;;;21.05;43.79
65227;BME280;51805;49.012;12.104;2023-02-28T04:53:24;98489.00;;;21.01;43.94
65227;BME280;51805;49.012;12.104;2023-02-28T04:55:49;98482.78;;;21.01;43.74
65227;BME280;51805;49.012;12.104;2023-02-28T04:58:14;98493.59;;;21.01;43.93
65227;BME280;51805;49.012;12.104;2023-02-28T05:00:39;98494.41;;;21.01;43.73
65227;BME280;51805;49.012;12.104;2023-02-28T05:03:05;98496.53;;;20.99;43.78
65227;BME280;51805;49.012;12.104;2023-02-28T05:05:30;98491.13;;;20.99;43.72
65227;BME280;51805;49.012;12.104;2023-02-28T05:07:55;98499.50;;;20.98;43.66
65227;BME280;51805;49.012;12.104;2023-02-28T05:10:20;98501.94;;;20.99;43.76
65227;BME280;51805;49.012;12.104;2023-02-28T05:12:45;98498.72;;;20.97;43.68
65227;BME280;51805;49.012;12.104;2023-02-28T05:15:12;98501.66;;;20.96;43.76
65227;BME280;51805;49.012;12.104;2023-02-28T05:17:37;98500.59;;;20.97;43.67
65227;BME280;51805;49.012;12.104;2023-02-28T05:20:02;98497.88;;;20.97;43.60
65227;BME280;51805;49.012;12.104;2023-02-28T05:22:27;98495.66;;;20.94;43.67
65227;BME280;51805;49.012;12.104;2023-02-28T05:24:53;98505.38;;;20.95;43.81
65227;BME280;51805;49.012;12.104;2023-02-28T05:27:18;98497.53;;;20.93;43.74
65227;BME280;51805;49.012;12.104;2023-02-28T05:29:43;98501.06;;;20.94;43.82
65227;BME280;51805;49.012;12.104;2023-02-28T05:32:11;98496.25;;;20.96;43.74
65227;BME280;51805;49.012;12.104;2023-02-28T05:34:37;98499.50;;;20.98;43.52
65227;BME280;51805;49.012;12.104;2023-02-28T05:37:02;98505.47;;;21.00;43.52
65227;BME280;51805;49.012;12.104;2023-02-28T05:39:27;98510.63;;;21.01;43.60
65227;BME280;51805;49.012;12.104;2023-02-28T05:41:53;98505.22;;;21.01;43.46
65227;BME280;51805;49.012;12.104;2023-02-28T05:44:18;98513.06;;;21.03;43.39
65227;BME280;51805;49.012;12.104;2023-02-28T05:46:43;98508.75;;;21.02;43.58
65227;BME280;51805;49.012;12.104;2023-02-28T05:49:08;98499.56;;;21.03;43.32
65227;BME280;51805;49.012;12.104;2023-02-28T05:51:33;98502.25;;;21.03;43.36
65227;BME280;51805;49.012;12.104;2023-02-28T05:53:59;98504.19;;;21.07;43.29
65227;BME280;51805;49.012;12.104;2023-02-28T05:56:24;98508.78;;;21.07;43.23
65227;BME280;51805;49.012;12.104;2023-02-28T05:58:49;98510.94;;;21.10;43.37
65227;BME280;51805;49.012;12.104;2023-02-28T06:01:21;98513.16;;;21.13;43.35
65227;BME280;51805;49.012;12.104;2023-02-28T06:03:47;98516.94;;;21.12;43.21
65227;BME280;51805;49.012;12.104;2023-02-28T06:06:12;98514.78;;;21.14;43.30
65227;BME280;51805;49.012;12.104;2023-02-28T06:08:37;98513.97;;;21.13;43.15
65227;BME280;51805;49.012;12.104;2023-02-28T06:11:03;98515.59;;;21.14;43.18
65227;BME280;51805;49.012;12.104;2023-02-28T06:13:28;98517.56;;;21.19;43.03
65227;BME280;51805;49.012;12.104;2023-02-28T06:15:53;98524.56;;;21.20;42.96
65227;BME280;51805;49.012;12.104;2023-02-28T06:18:18;98520.78;;;21.21;42.99
65227;BME280;51805;49.012;12.104;2023-02-28T06:20:43;98520.78;;;21.21;43.04
65227;BME280;51805;49.012;12.104;2023-02-28T06:23:08;98525.41;;;21.25;42.87
65227;BME280;51805;49.012;12.104;2023-02-28T06:25:33;98527.06;;;21.26;42.87
65227;BME280;51805;49.012;12.104;2023-02-28T06:27:59;98530.31;;;21.28;42.79
65227;BME280;51805;49.012;12.104;2023-02-28T06:30:24;98528.44;;;21.29;42.92
65227;BME280;51805;49.012;12.104;2023-02-28T06:32:49;98528.50;;;21.34;42.88
65227;BME280;51805;49.012;12.104;2023-02-28T06:35:14;98529.03;;;21.36;42.72
65227;BME280;51805;49.012;12.104;2023-02-28T06:37:39;98536.34;;;21.35;42.91
65227;BME280;51805;49.012;12.104;2023-02-28T06:40:05;98516.22;;;21.21;42.54
65227;BME280;51805;49.012;12.104;2023-02-28T06:42:30;98546.38;;;21.40;42.61
65227;BME280;51805;49.012;12.104;2023-02-28T06:44:55;98541.28;;;21.43;42.73
65227;BME280;51805;49.012;12.104;2023-02-28T06:47:21;98537.81;;;21.48;42.55
65227;BME280;51805;49.012;12.104;2023-02-28T06:49:46;98548.09;;;21.51;42.46
65227;BME280;51805;49.012;12.104;2023-02-28T06:52:11;98543.78;;;21.55;42.47
65227;BME280;51805;49.012;12.104;2023-02-28T06:54:36;98545.19;;;21.58;42.51
65227;BME280;51805;49.012;12.104;2023-02-28T06:57:01;98554.09;;;21.58;42.43
65227;BME280;51805;49.012;12.104;2023-02-28T06:59:27;98546.53;;;21.60;42.32
65227;BME280;51805;49.012;12.104;2023-02-28T07:01:52;98547.91;;;21.63;42.85
65227;BME280;51805;49.012;12.104;2023-02-28T07:04:17;98550.34;;;21.64;44.96
65227;BME280;51805;49.012;12.104;2023-02-28T07:06:42;98556.63;;;21.70;44.17
65227;BME280;51805;49.012;12.104;2023-02-28T07:09:07;98550.44;;;21.74;44.28
65227;BME280;51805;49.012;12.104;2023-02-28T07:11:32;98551.03;;;21.81;44.22
65227;BME280;51805;49.012;12.104;2023-02-28T07:13:57;98554.94;;;21.95;44.14
65227;BME280;51805;49.012;12.104;2023-02-28T07:16:23;98561.22;;;22.06;43.89
65227;BME280;51805;49.012;12.104;2023-02-28T07:18:49;98557.69;;;22.00;44.52
65227;BME280;51805;49.012;12.104;2023-02-28T07:21:14;98557.69;;;22.00;44.06
65227;BME280;51805;49.012;12.104;2023-02-28T07:23:39;98562.03;;;22.06;43.90
65227;BME280;51805;49.012;12.104;2023-02-28T07:26:05;98561.00;;;22.12;43.76
65227;BME280;51805;49.012;12.104;2023-02-28T07:28:30;98563.47;;;22.19;43.49
65227;BME280;51805;49.012;12.104;2023-02-28T07:30:55;98559.16;;;22.23;43.62
65227;BME280;51805;49.012;12.104;2023-02-28T07:33:20;98561.09;;;22.32;43.22
65227;BME280;51805;49.012;12.104;2023-02-28T07:35:46;98557.88;;;22.35;43.45
65227;BME280;51805;49.012;12.104;2023-02-28T07:38:11;98561.69;;;22.39;43.20
65227;BME280;51805;49.012;12.104;2023-02-28T07:40:36;98559.00;;;22.39;43.34
65227;BME280;51805;49.012;12.104;2023-02-28T07:43:02;98566.00;;;22.35;43.35
65227;BME280;51805;49.012;12.104;2023-02-28T07:45:27;98560.53;;;22.30;43.59
65227;BME280;51805;49.012;12.104;2023-02-28T07:47:52;98570.03;;;22.28;43.62
65227;BME280;51805;49.012;12.104;2023-02-28T07:50:18;98568.09;;;22.23;43.80
65227;BME280;51805;49.012;12.104;2023-02-28T07:52:43;98568.09;;;22.23;43.83
65227;BME280;51805;49.012;12.104;2023-02-28T07:55:08;98573.53;;;22.23;43.90
65227;BME280;51805;49.012;12.104;2023-02-28T07:57:33;98575.97;;;22.25;43.62
65227;BME280;51805;49.012;12.104;2023-02-28T07:59:59;98579.22;;;22.27;43.66
65227;BME280;51805;49.012;12.104;2023-02-28T08:02:24;98574.63;;;22.27;43.83
65227;BME280;51805;49.012;12.104;2023-02-28T08:04:49;98572.47;;;22.29;43.65
65227;BME280;51805;49.012;12.104;2023-02-28T08:07:15;98574.38;;;22.34;43.54
65227;BME280;51805;49.012;12.104;2023-02-28T08:09:40;98576.53;;;22.32;43.67
65227;BME280;51805;49.012;12.104;2023-02-28T08:12:06;98568.13;;;22.33;43.78
65227;BME280;51805;49.012;12.104;2023-02-28T08:14:31;98573.56;;;22.33;43.82
65227;BME280;51805;49.012;12.104;2023-02-28T08:16:56;98566.53;;;22.32;43.80
65227;BME280;51805;49.012;12.104;2023-02-28T08:19:21;98573.56;;;22.33;43.76
65227;BME280;51805;49.012;12.104;2023-02-28T08:21:46;98573.56;;;22.33;43.84
65227;BME280;51805;49.012;12.104;2023-02-28T08:24:11;98585.50;;;22.37;43.81
65227;BME280;51805;49.012;12.104;2023-02-28T08:26:37;98578.75;;;22.40;43.71
65227;BME280;51805;49.012;12.104;2023-02-28T08:29:02;98582.28;;;22.40;43.70
65227;BME280;51805;49.012;12.104;2023-02-28T08:31:27;98583.91;;;22.41;43.67
65227;BME280;51805;49.012;12.104;2023-02-28T08:33:52;98586.88;;;22.40;43.84
65227;BME280;51805;49.012;12.104;2023-02-28T08:36:17;98584.97;;;22.40;43.74
65227;BME280;51805;49.012;12.104;2023-02-28T08:38:42;98585.53;;;22.42;43.78
65227;BME280;51805;49.012;12.104;2023-02-28T08:41:09;98582.28;;;22.40;43.86
65227;BME280;51805;49.012;12.104;2023-02-28T08:43:35;98593.16;;;22.45;43.79
65227;BME280;51805;49.012;12.104;2023-02-28T08:46:00;98587.72;;;22.45;43.61
65227;BME280;51805;49.012;12.104;2023-02-28T08:48:26;98596.38;;;22.47;43.70
65227;BME280;51805;49.012;12.104;2023-02-28T08:50:55;98599.66;;;22.49;43.61
65227;BME280;51805;49.012;12.104;2023-02-28T08:53:20;98603.44;;;22.48;43.70
65227;BME280;51805;49.012;12.104;2023-02-28T08:55:45;98592.91;;;22.52;43.50
65227;BME280;51805;49.012;12.104;2023-02-28T08:58:10;98592.66;;;22.53;43.70
65227;BME280;51805;49.012;12.104;2023-02-28T09:00:35;98592.13;;;22.56;43.55
65227;BME280;51805;49.012;12.104;2023-02-28T09:03:01;98589.41;;;22.56;43.69
65227;BME280;51805;49.012;12.104;2023-02-28T09:05:26;98588.09;;;22.59;43.38
65227;BME280;51805;49.012;12.104;2023-02-28T09:07:51;98592.69;;;22.58;43.47
65227;BME280;51805;49.012;12.104;2023-02-28T09:10:16;98584.56;;;22.58;43.47
65227;BME280;51805;49.012;12.104;2023-02-28T09:12:41;98595.94;;;22.60;43.35
65227;BME280;51805;49.012;12.104;2023-02-28T09:15:06;98592.16;;;22.61;43.44
65227;BME280;51805;49.012;12.104;2023-02-28T09:17:32;98594.59;;;22.63;43.51
65227;BME280;51805;49.012;12.104;2023-02-28T09:19:57;98584.59;;;22.63;43.36
65227;BME280;51805;49.012;12.104;2023-02-28T09:22:22;98588.38;;;22.62;43.58
65227;BME280;51805;49.012;12.104;2023-02-28T09:24:47;98597.03;;;22.64;43.40
65227;BME280;51805;49.012;12.104;2023-02-28T09:27:12;98597.03;;;22.64;43.51
65227;BME280;51805;49.012;12.104;2023-02-28T09:29:38;98591.63;;;22.64;43.41
65227;BME280;51805;49.012;12.104;2023-02-28T09:32:03;98594.88;;;22.66;43.46
65227;BME280;51805;49.012;12.104;2023-02-28T09:34:28;98590.03;;;22.68;43.46
65227;BME280;51805;49.012;12.104;2023-02-28T09:36:53;98594.34;;;22.69;43.29
65227;BME280;51805;49.012;12.104;2023-02-28T09:39:18;98588.41;;;22.72;43.45
65227;BME280;51805;49.012;12.104;2023-02-28T09:41:44;98594.88;;;22.66;43.42
65227;BME280;51805;49.012;12.104;2023-02-28T09:44:10;98597.03;;;22.64;43.52
65227;BME280;51805;49.012;12.104;2023-02-28T09:46:40;98598.69;;;22.65;43.47
65227;BME280;51805;49.012;12.104;2023-02-28T09:49:08;98600.88;;;22.68;43.48
65227;BME280;51805;49.012;12.104;2023-02-28T09:54:10;98604.63;;;22.67;43.47
65227;BME280;51805;49.012;12.104;2023-02-28T09:56:39;98595.19;;;22.70;43.55
65227;BME280;51805;49.012;12.104;2023-02-28T09:59:17;98601.97;;;22.77;43.23
65227;BME280;51805;49.012;12.104;2023-02-28T10:07:11;98601.97;;;22.77;43.23
65227;BME280;51805;49.012;12.104;2023-02-28T10:09:42;98613.06;;;22.71;43.42
65227;BME280;51805;49.012;12.104;2023-02-28T10:12:08;98606.56;;;22.72;43.53
65227;BME280;51805;49.012;12.104;2023-02-28T10:14:34;98617.13;;;22.73;43.38
65227;BME280;51805;49.012;12.104;2023-02-28T10:17:17;98611.16;;;22.71;43.37
65227;BME280;51805;49.012;12.104;2023-02-28T10:19:50;98610.91;;;22.73;43.48
65227;BME280;51805;49.012;12.104;2023-02-28T10:24:46;98606.81;;;22.70;43.37
65227;BME280;51805;49.012;12.104;2023-02-28T10:27:15;98609.00;;;22.73;43.34
65227;BME280;51805;49.012;12.104;2023-02-28T10:29:45;98610.38;;;22.76;43.48
65227;BME280;51805;49.012;12.104;2023-02-28T10:32:14;98612.53;;;22.74;43.46
65227;BME280;51805;49.012;12.104;2023-02-28T10:34:40;98609.28;;;22.77;43.29
65227;BME280;51805;49.012;12.104;2023-02-28T10:37:05;98603.03;;;22.76;43.37
65227;BME280;51805;49.012;12.104;2023-02-28T10:39:48;98613.34;;;22.74;43.40
65227;BME280;51805;49.012;12.104;2023-02-28T10:42:21;98609.28;;;22.77;43.38
65227;BME280;51805;49.012;12.104;2023-02-28T10:44:46;98620.16;;;22.82;43.24
65227;BME280;51805;49.012;12.104;2023-02-28T10:47:14;98606.31;;;22.78;43.38
65227;BME280;51805;49.012;12.104;2023-02-28T10:49:40;98604.72;;;22.82;43.13
65227;BME280;51805;49.012;12.104;2023-02-28T10:52:11;98616.09;;;22.84;43.12
65227;BME280;51805;49.012;12.104;2023-02-28T10:54:36;98613.13;;;22.86;43.08
65227;BME280;51805;49.012;12.104;2023-02-28T10:57:05;98611.78;;;22.88;43.09
65227;BME280;51805;49.012;12.104;2023-02-28T10:59:31;98599.03;;;22.89;43.10
65227;BME280;51805;49.012;12.104;2023-02-28T11:01:56;98611.78;;;22.93;42.94
65227;BME280;51805;49.012;12.104;2023-02-28T11:06:47;98605.03;;;22.96;42.88
65227;BME280;51805;49.012;12.104;2023-02-28T11:11:53;98606.94;;;23.00;42.69
65227;BME280;51805;49.012;12.104;2023-02-28T11:14:22;98610.47;;;23.01;42.72
65227;BME280;51805;49.012;12.104;2023-02-28T11:16:48;98600.94;;;22.93;42.87
65227;BME280;51805;49.012;12.104;2023-02-28T11:19:22;98601.53;;;23.00;42.74
65227;BME280;51805;49.012;12.104;2023-02-28T11:21:53;98602.34;;;23.01;42.69
65227;BME280;51805;49.012;12.104;2023-02-28T11:24:30;98604.22;;;23.00;42.75
65227;BME280;51805;49.012;12.104;2023-02-28T11:26:57;98607.75;;;23.01;42.69
65227;BME280;51805;49.012;12.104;2023-02-28T11:29:23;98604.78;;;23.02;42.70
65227;BME280;51805;49.012;12.104;2023-02-28T11:34:32;98598.53;;;23.02;42.68
65227;BME280;51805;49.012;12.104;2023-02-28T11:36:58;98598.00;;;23.05;42.65
65227;BME280;51805;49.012;12.104;2023-02-28T11:39:24;98596.91;;;23.06;42.65
65227;BME280;51805;49.012;12.104;2023-02-28T11:42:00;98595.84;;;23.07;42.59
65227;BME280;51805;49.012;12.104;2023-02-28T11:44:43;98595.56;;;23.09;42.62
65227;BME280;51805;49.012;12.104;2023-02-28T11:47:22;98592.84;;;23.03;42.62
65227;BME280;51805;49.012;12.104;2023-02-28T11:52:29;98592.88;;;23.09;42.60
65227;BME280;51805;49.012;12.104;2023-02-28T11:55:01;98593.41;;;23.06;42.68
65227;BME280;51805;49.012;12.104;2023-02-28T11:57:38;98595.84;;;23.07;42.58
65227;BME280;51805;49.012;12.104;2023-02-28T12:02:50;98590.69;;;23.06;42.67
65227;BME280;51805;49.012;12.104;2023-02-28T12:05:24;98590.44;;;23.07;42.53
65227;BME280;51805;49.012;12.104;2023-02-28T12:10:28;98594.47;;;23.04;42.67
65227;BME280;51805;49.012;12.104;2023-02-28T12:12:58;98585.00;;;23.07;42.64
65227;BME280;51805;49.012;12.104;2023-02-28T12:15:33;98576.31;;;23.05;42.67
65227;BME280;51805;49.012;12.104;2023-02-28T12:18:17;98576.88;;;23.07;42.55
65227;BME280;51805;49.012;12.104;2023-02-28T12:28:25;98569.53;;;23.08;42.50
65227;BME280;51805;49.012;12.104;2023-02-28T12:30:54;98570.34;;;23.08;42.55
65227;BME280;51805;49.012;12.104;2023-02-28T12:33:22;98566.56;;;23.09;42.50
65227;BME280;51805;49.012;12.104;2023-02-28T12:35:51;98559.25;;;23.10;42.45
65227;BME280;51805;49.012;12.104;2023-02-28T12:38:25;98559.25;;;23.10;42.38
65227;BME280;51805;49.012;12.104;2023-02-28T12:43:20;98565.75;;;23.14;42.28
65227;BME280;51805;49.012;12.104;2023-02-28T12:45:51;98564.69;;;23.15;42.26
65227;BME280;51805;49.012;12.104;2023-02-28T12:48:20;98562.50;;;23.17;42.26
65227;BME280;51805;49.012;12.104;2023-02-28T12:50:47;98540.00;;;23.16;42.16
65227;BME280;51805;49.012;12.104;2023-02-28T12:56:16;98550.03;;;23.16;42.16
65227;BME280;51805;49.012;12.104;2023-02-28T12:58:46;98543.50;;;23.17;42.32
65227;BME280;51805;49.012;12.104;2023-02-28T13:10:58;98547.31;;;23.16;42.26
65227;BME280;51805;49.012;12.104;2023-02-28T13:13:24;98542.44;;;23.18;42.30
65227;BME280;51805;49.012;12.104;2023-02-28T13:15:56;98547.88;;;23.18;42.21
65227;BME280;51805;49.012;12.104;2023-02-28T13:18:27;98542.19;;;23.19;42.24
65227;BME280;51805;49.012;12.104;2023-02-28T13:20:53;98542.97;;;23.20;42.24
65227;BME280;51805;49.012;12.104;2023-02-28T13:24:36;98553.81;;;23.20;42.22
65227;BME280;51805;49.012;12.104;2023-02-28T13:26:13;98552.75;;;23.21;42.24
65227;BME280;51805;49.012;12.104;2023-02-28T13:31:15;98553.31;;;23.23;42.05
65227;BME280;51805;49.012;12.104;2023-02-28T13:34:26;98548.94;;;23.22;42.19
65227;BME280;51805;49.012;12.104;2023-02-28T13:36:27;98553.31;;;23.23;42.08
65227;BME280;51805;49.012;12.104;2023-02-28T13:39:03;98546.78;;;23.24;42.18
65227;BME280;51805;49.012;12.104;2023-02-28T13:41:47;98545.72;;;23.25;42.10
65227;BME280;51805;49.012;12.104;2023-02-28T13:49:18;98543.56;;;23.27;41.99
65227;BME280;51805;49.012;12.104;2023-02-28T13:51:47;98547.38;;;23.26;42.21
65227;BME280;51805;49.012;12.104;2023-02-28T13:54:37;98540.03;;;23.26;42.16
65227;BME280;51805;49.012;12.104;2023-02-28T13:57:08;98544.13;;;23.29;42.12
65227;BME280;51805;49.012;12.104;2023-02-28T13:59:46;98545.19;;;23.28;42.04
65227;BME280;51805;49.012;12.104;2023-02-28T14:07:38;98543.59;;;23.32;41.80
65227;BME280;51805;49.012;12.104;2023-02-28T14:10:06;98538.16;;;23.32;42.10
65227;BME280;51805;49.012;12.104;2023-02-28T14:17:51;98544.09;;;23.34;42.07
65227;BME280;51805;49.012;12.104;2023-02-28T14:20:16;98542.50;;;23.33;42.04
65227;BME280;51805;49.012;12.104;2023-02-28T14:25:18;98538.69;;;23.34;42.02
65227;BME280;51805;49.012;12.104;2023-02-28T14:38:14;98544.66;;;23.36;42.07
65227;BME280;51805;49.012;12.104;2023-02-28T14:40:41;98532.72;;;23.37;42.03
65227;BME280;51805;49.012;12.104;2023-02-28T14:43:18;98547.38;;;23.36;41.99
65227;BME280;51805;49.012;12.104;2023-02-28T14:45:44;98544.66;;;23.36;42.00
65227;BME280;51805;49.012;12.104;2023-02-28T14:48:15;98541.69;;;23.37;41.93